Latest Coastal Weather Observations for Cato Island

IDQ60701

Issued at 6:01 am EST Wednesday 27 September 2017 (issued every 10 minutes, with the page automatically refreshed every 10 minutes)

About coastal observations | Map of coastal stations | Coastal observations for QLD | Marine services | Other Formats
Station Details ID: 200601 Name: CATO ISLAND Lat: -23.25 Lon: 155.54 Height: 6.3 m
Data from the previous 72 hours. | See also: Recent months for locations in Queensland
Date/Time
EST
Temp
°C
Wind Pressure Rain since
9am
mm
Weather Cloud Vis
km
Sea
Height
m
Swell
Dir  Spd
kts
Gust
kts
hPa Trend Height
m
Period
s
Dir
27/06:00am 22.7 - 6 7 1016.8 - - - - - - - - -
27/05:30am 22.5 - 5 6 1016.7 - - - - - - - - -
27/05:00am 22.4 - 7 8 1016.4 - - - - - - - - -
27/04:30am 22.6 - 6 7 1016.0 - - - - - - - - -
27/04:00am 22.7 - 6 7 1015.8 - - - - - - - - -
27/03:30am 22.8 - 5 6 1015.5 - - - - - - - - -
27/03:00am 22.7 - 5 7 1015.2 - - - - - - - - -
27/02:30am 22.8 - 8 10 1015.1 - - - - - - - - -
27/02:00am 22.8 - 9 11 1015.3 - - - - - - - - -
27/01:30am 22.9 - 8 10 1015.4 - - - - - - - - -
27/01:00am 23.0 - 6 7 1015.8 - - - - - - - - -
27/12:30am 23.0 - 10 13 1015.6 - - - - - - - - -
27/12:00am 23.1 - 12 14 1015.5 - - - - - - - - -
 
Date/Time
EST
Temp
°C
Wind Pressure Rain since
9am
mm
Weather Cloud Vis
km
Sea
Height
m
Swell
Dir  Spd
kts
Gust
kts
hPa Trend Height
m
Period
s
Dir
26/11:30pm 23.3 - 14 16 1015.6 - - - - - - - - -
26/11:00pm 23.5 - 13 16 1015.9 - - - - - - - - -
26/10:30pm 23.3 - 13 15 1016.1 - - - - - - - - -
26/10:00pm 23.3 - 12 14 1016.2 - - - - - - - - -
26/09:30pm 23.3 - 12 15 1016.0 - - - - - - - - -
26/09:00pm 23.3 - 13 15 1015.9 - - - - - - - - -
26/08:30pm 23.3 - 10 13 1016.1 - - - - - - - - -
26/08:00pm 23.3 - 6 8 1016.2 - - - - - - - - -
26/07:30pm 23.3 - 5 6 1016.1 - - - - - - - - -
26/07:00pm 23.1 - 4 5 1015.9 - - - - - - - - -
26/06:30pm 23.2 - 5 6 1015.7 - - - - - - - - -
26/06:00pm 23.5 - 5 7 1015.5 - - - - - - - - -
26/05:30pm 24.0 - 7 8 1015.3 - - - - - - - - -
26/05:00pm 24.6 - 8 9 1015.2 - - - - - - - - -
26/04:00pm 26.1 - 8 10 1014.9 - - - - - - - - -
26/03:30pm 25.6 - 9 11 1014.5 - - - - - - - - -
26/03:00pm 26.0 - 9 11 1014.4 - - - - - - - - -
26/02:30pm 25.5 - 10 12 1014.1 - - - - - - - - -
26/02:00pm 25.3 - 10 13 1014.0 - - - - - - - - -
26/01:30pm 25.9 - 10 11 1014.6 - - - - - - - - -
26/01:00pm 26.2 - 10 12 1014.9 - - - - - - - - -
26/12:30pm 25.9 - 11 13 1015.2 - - - - - - - - -
26/12:00pm 26.0 - 10 12 1015.6 - - - - - - - - -
26/11:30am 26.1 - 10 13 1016.1 - - - - - - - - -
26/11:00am 25.4 - 14 16 1015.7 - - - - - - - - -
26/10:30am 25.6 - 12 14 1016.6 - - - - - - - - -
26/10:00am 25.6 - 13 15 1017.1 - - - - - - - - -
26/09:00am 24.4 - 16 19 1016.7 - - - - - - - - -
26/08:30am 24.3 - 15 18 1016.5 - - - - - - - - -
26/08:00am 24.3 - 14 16 1016.5 - - - - - - - - -
26/07:30am 24.0 - 14 17 1016.5 - - - - - - - - -
26/07:00am 23.5 - 15 17 1016.4 - - - - - - - - -
26/06:30am 23.2 - 14 16 1016.2 - - - - - - - - -
26/06:00am 23.0 - 14 17 1015.9 - - - - - - - - -
26/05:30am 22.7 - 14 16 1015.6 - - - - - - - - -
26/05:00am 22.6 - 14 - 1015.2 - - - - - - - - -
26/04:30am 22.9 - 14 17 1015.0 - - - - - - - - -
26/04:00am 22.6 - 15 17 1014.7 - - - - - - - - -
26/03:30am 22.7 - 15 17 1014.7 - - - - - - - - -
26/03:00am 22.6 - 15 17 1014.7 - - - - - - - - -
26/02:30am 22.6 - 14 17 1014.9 - - - - - - - - -
26/02:00am 22.6 - 13 16 1015.1 - - - - - - - - -
26/01:30am 22.6 - 11 14 1015.3 - - - - - - - - -
26/01:00am 22.6 - 13 15 1015.5 - - - - - - - - -
26/12:30am 22.6 - 10 15 1015.9 - - - - - - - - -
26/12:00am 22.7 - 11 15 1016.3 - - - - - - - - -
 
Date/Time
EST
Temp
°C
Wind Pressure Rain since
9am
mm
Weather Cloud Vis
km
Sea
Height
m
Swell
Dir  Spd
kts
Gust
kts
hPa Trend Height
m
Period
s
Dir
25/11:00pm 22.6 - 12 15 1016.6 - - - - - - - - -
25/10:30pm 22.8 - 13 15 1016.7 - - - - - - - - -
25/10:00pm 22.9 - 12 14 1016.7 - - - - - - - - -
25/09:30pm 22.7 - 10 12 1016.8 - - - - - - - - -
25/09:00pm 22.8 - 10 13 1016.8 - - - - - - - - -
25/08:30pm 22.9 - 10 13 1016.8 - - - - - - - - -
25/08:00pm 22.9 - 11 14 1016.6 - - - - - - - - -
25/07:30pm 23.1 - 10 13 1016.4 - - - - - - - - -
25/07:00pm 23.1 - 12 - 1016.2 - - - - - - - - -
25/06:30pm 23.0 - 12 13 1015.8 - - - - - - - - -
25/06:00pm 23.1 - 12 14 1015.8 - - - - - - - - -
25/05:30pm 23.4 - 11 13 1015.8 - - - - - - - - -
25/05:00pm 23.7 - 9 12 1015.5 - - - - - - - - -
25/04:30pm 23.9 - 10 12 1015.3 - - - - - - - - -
25/04:00pm 24.4 - 11 14 1015.1 - - - - - - - - -
25/03:30pm 24.7 - 11 13 1015.2 - - - - - - - - -
25/03:00pm 24.7 - 11 15 1015.2 - - - - - - - - -
25/02:30pm 25.3 - 11 14 1015.3 - - - - - - - - -
25/02:00pm 25.3 - 12 - 1015.5 - - - - - - - - -
25/01:30pm 25.4 - 13 15 1015.7 - - - - - - - - -
25/01:00pm 25.6 - 13 16 1016.0 - - - - - - - - -
25/12:30pm 26.2 - 15 17 1016.4 - - - - - - - - -
25/12:00pm 26.0 - 15 18 1016.7 - - - - - - - - -
25/11:30am 25.9 - 16 19 1017.0 - - - - - - - - -
25/11:00am 25.7 - 16 19 1017.2 - - - - - - - - -
25/10:30am 25.8 - 14 18 1017.6 - - - - - - - - -
25/10:00am 25.3 - 13 19 1017.8 - - - - - - - - -
25/09:30am 25.1 - 13 16 1018.1 - - - - - - - - -
25/09:00am 25.0 - 13 18 1018.2 - - - - - - - - -
25/08:30am 24.6 - 14 16 1018.1 - - - - - - - - -
25/08:00am 24.2 - 13 16 1018.0 - - - - - - - - -
25/07:30am 23.6 - 14 17 1017.9 - - - - - - - - -
25/07:00am 23.1 - 13 15 1017.8 - - - - - - - - -
25/06:30am 22.9 - 13 17 1017.5 - - - - - - - - -
25/06:00am 22.3 - 13 16 1017.3 - - - - - - - - -
25/05:30am 22.1 - 14 16 1016.9 - - - - - - - - -
25/05:00am 22.3 - 13 16 1016.6 - - - - - - - - -
25/04:30am 22.2 - 13 15 1016.4 - - - - - - - - -
25/04:00am 21.9 - 14 17 1016.1 - - - - - - - - -
25/03:30am 21.8 - 13 16 1016.0 - - - - - - - - -
25/03:00am 21.9 - 14 17 1016.0 - - - - - - - - -
25/02:30am 21.8 - 13 16 1016.0 - - - - - - - - -
25/02:00am 21.8 - 13 16 1016.1 - - - - - - - - -
25/01:30am 21.8 - 13 16 1016.4 - - - - - - - - -
25/01:00am 21.9 - 13 16 1016.6 - - - - - - - - -
25/12:30am 21.9 - 12 15 1016.8 - - - - - - - - -
25/12:00am 21.8 - 12 14 1017.0 - - - - - - - - -
 
Date/Time
EST
Temp
°C
Wind Pressure Rain since
9am
mm
Weather Cloud Vis
km
Sea
Height
m
Swell
Dir  Spd
kts
Gust
kts
hPa Trend Height
m
Period
s
Dir
24/11:30pm 21.7 - 11 13 1017.1 - - - - - - - - -
24/11:00pm 21.7 - 11 12 1017.1 - - - - - - - - -
24/10:30pm 22.0 - 10 12 1017.3 - - - - - - - - -
24/10:00pm 21.9 - 9 11 1017.4 - - - - - - - - -
24/09:30pm 21.9 - 9 11 1017.5 - - - - - - - - -
24/09:00pm 21.8 - 8 10 1017.4 - - - - - - - - -
24/08:30pm 22.0 - 9 10 1017.1 - - - - - - - - -
24/08:00pm 22.0 - 6 9 1016.8 - - - - - - - - -
24/07:30pm 22.2 - 7 8 1016.5 - - - - - - - - -
24/07:00pm 22.3 - 8 10 1016.3 - - - - - - - - -
24/06:30pm 22.5 - 8 11 1016.1 - - - - - - - - -
24/06:00pm 22.4 - 9 11 1016.1 - - - - - - - - -
24/05:30pm 22.7 - 9 11 1015.9 - - - - - - - - -
24/05:00pm 23.1 - 9 11 1015.6 - - - - - - - - -
24/04:30pm 23.6 - 10 12 1015.4 - - - - - - - - -
24/04:00pm 23.9 - 10 13 1015.4 - - - - - - - - -
24/03:30pm 24.3 - 12 15 1015.3 - - - - - - - - -
24/03:00pm 24.9 - 11 13 1015.4 - - - - - - - - -
24/02:30pm 25.6 - 10 11 1015.6 - - - - - - - - -
24/02:00pm 25.4 - 11 13 1015.8 - - - - - - - - -
24/01:30pm 24.8 - 12 14 1016.1 - - - - - - - - -
24/01:00pm 25.0 - 11 14 1016.4 - - - - - - - - -
24/12:30pm 25.7 - 12 14 1016.6 - - - - - - - - -
24/12:00pm 25.6 - 11 15 1016.9 - - - - - - - - -
24/11:30am 25.8 - 11 13 1017.3 - - - - - - - - -
24/11:00am 25.7 - 10 13 1017.6 - - - - - - - - -
24/10:30am 25.3 - 11 14 1017.9 - - - - - - - - -
24/10:00am 25.0 - 11 13 1018.0 - - - - - - - - -
24/09:30am 24.6 - 11 14 1018.1 - - - - - - - - -
24/09:00am 24.3 - 12 15 1018.1 - - - - - - - - -
24/08:30am 23.9 - 13 17 1018.0 - - - - - - - - -
24/08:00am 23.4 - 15 19 1018.0 - - - - - - - - -
24/07:30am 22.7 - 15 17 1017.9 - - - - - - - - -
24/07:00am 22.4 - 15 17 1017.7 - - - - - - - - -
24/06:30am 22.2 - 14 17 1017.4 - - - - - - - - -

Other Formats:

Comma delimited format used in spreadsheet applications
http://www.bom.gov.au/fwo/IDQ60701/IDQ60701.94394.axf

JavaScript Object Notation format (JSON) in row-major order
http://www.bom.gov.au/fwo/IDQ60701/IDQ60701.94394.json